• Join FlightAware (Why Join?)
  • Login
  • US Flag 
07:57AM EDT


 

Airport Tracker/Info


-or-


 

Live Flight TrackerFlight Track Log ✈ N201SU ✈ 24-Apr-2013 ✈ KSLN - KCOS

Flight Track Log - Related Links

Times and Time Zones

All times are in EDT time to prevent confusion due to time zone crossing. See the N201SU flight status page for this flight to view local times or setup timezone preferences in your user account.

Time Position Orientation Groundspeed Altitude Reporting Facility
EDT Latitude Longitude Course Direction KTS MPH feet Rate Location/Type
11:41AM 38.8089 -97.6292 331° Northwest 99 114 2,300  Level Kansas City Center
11:42AM 38.8258 -97.6411 331° Northwest 83 96 1,900 60 Descending Kansas City Center
11:44AM 38.8123 -97.8245 303° West  Level FlightAware Approximate
11:45AM 38.7828 -97.6442 303° West 155 178 2,600  Level Kansas City Center
11:46AM 38.7828 -97.5814 90° East 250 288 5,000 2,700 Climbing Kansas City Center
11:47AM 38.8428 -97.5981 348° North 254 292 8,300 3,360 Climbing Kansas City Center
11:48AM 38.8883 -97.6733 308° West 256 295 12,000 3,420 Climbing Kansas City Center
11:49AM 38.9386 -97.7464 312° West 260 299 15,300 2,940 Climbing Kansas City Center
11:50AM 38.9914 -97.8164 314° West 268 308 18,100 2,760 Climbing Kansas City Center
11:51AM 39.0025 -97.9006 280° West 268 308 21,000 2,940 Climbing Kansas City Center
11:52AM 39.0139 -98.0094 278° West 261 300 24,300 2,400 Climbing Kansas City Center
11:53AM 39.0244 -98.0981 279° West 255 293 26,000 1,260 Climbing Kansas City Center
11:54AM 39.0361 -98.1964 279° West 265 305 27,000 1,500 Climbing Kansas City Center
11:55AM 39.0483 -98.2969 279° West 281 323 29,200 2,280 Climbing Kansas City Center
11:56AM 39.0575 -98.3839 278° West 252 290 31,700 1,320 Climbing Kansas City Center
11:57AM 39.0672 -98.4692 278° West 244 281 32,000 120 Climbing Kansas City Center
11:58AM 39.0817 -98.5858 279° West 274 315 32,000  Level Kansas City Center
11:59AM 39.0928 -98.6892 278° West 290 334 32,000 840 Level Kansas City Center
12:00PM 39.1033 -98.7894 278° West 281 323 33,800 1,740 Climbing Kansas City Center
12:01PM 39.1128 -98.8778 278° West 254 292 35,700 1,020 Climbing Denver Center
12:02PM 39.1250 -98.9858 278° West 256 295 36,000 120 Climbing Denver Center
12:03PM 39.1353 -99.0828 278° West 281 323 36,000  Level Denver Center
12:04PM 39.1481 -99.2022 278° West 299 344 36,000  Level Denver Center
12:05PM 39.1597 -99.3056 278° West 304 350 36,000  Level Denver Center
12:06PM 39.1719 -99.4278 277° West 308 354 36,000  Level Denver Center
12:07PM 39.1822 -99.5317 277° West 307 353 36,000  Level Denver Center
12:08PM 39.1958 -99.6539 278° West 309 356 36,000  Level Denver Center
12:09PM 39.2061 -99.7575 277° West 305 351 36,000  Level Denver Center
12:10PM 39.2183 -99.8775 278° West 304 350 36,000  Level Denver Center
12:11PM 39.2297 -99.9889 278° West 303 349 36,000  Level Denver Center
12:13PM 39.2400 -100.0914 277° West 301 346 36,000  Level Denver Center
12:14PM 39.2503 -100.1933 277° West 300 345 36,000  Level Denver Center
12:15PM 39.2622 -100.3125 277° West 300 345 36,000  Level Denver Center
12:16PM 39.2717 -100.4147 277° West 301 346 36,000  Level Denver Center
12:17PM 39.2833 -100.5331 277° West 298 343 36,000  Level Denver Center
12:18PM 39.2925 -100.6347 277° West 299 344 36,000  Level Denver Center
12:19PM 39.3039 -100.7533 277° West 297 342 36,000  Level Denver Center
12:20PM 39.3128 -100.8533 277° West 295 339 36,000  Level Denver Center
12:21PM 39.3244 -100.9747 277° West 302 348 36,000  Level Denver Center
12:22PM 39.3333 -101.0758 277° West 299 344 36,000  Level Denver Center
12:23PM 39.3444 -101.1953 277° West 299 344 36,000  Level Denver Center
12:24PM 39.3528 -101.2986 276° West 300 345 36,000 -540 Level Denver Center
12:25PM 39.3633 -101.4164 277° West 297 342 35,000 -960 Descending Denver Center
12:26PM 39.3728 -101.5125 277° West 285 328 34,100 -900 Descending Denver Center
12:27PM 39.3797 -101.6067 275° West 277 319 33,200 -1,020 Descending Denver Center
12:28PM 39.3794 -101.7194 270° West 285 328 32,100 -1,020 Descending Denver Center
12:29PM 39.3522 -101.8144 250° West 291 335 31,200 -1,020 Descending Denver Center
12:30PM 39.3194 -101.9286 250° West 292 336 30,100 -1,020 Descending Denver Center
12:31PM 39.2911 -102.0236 249° West 295 339 29,100 -1,020 Descending Denver Center
12:32PM 39.2583 -102.1381 250° West 305 351 28,000 -540 Descending Denver Center
12:33PM 39.2289 -102.2406 250° West 316 364 28,000  Level Denver Center
12:34PM 39.1950 -102.3592 250° West 317 365 28,000  Level Denver Center
12:35PM 39.1639 -102.4600 248° West 316 364 28,000 -180 Level Denver Center
12:36PM 39.1350 -102.5614 250° West 315 362 27,700 -420 Descending Denver Center
12:37PM 39.1008 -102.6769 249° West 310 357 27,200 -720 Descending Denver Center
12:38PM 39.0703 -102.7811 249° West 313 360 26,300 -1,200 Descending Denver Center
12:39PM 39.0350 -102.8933 248° West 332 382 24,800 -1,440 Descending Denver Center
12:40PM 39.0008 -103.0000 248° West 322 371 23,300 -1,380 Descending Denver Center
12:41PM 38.9667 -103.1214 250° West 311 358 22,000 -1,260 Descending Denver Center
12:43PM 38.9333 -103.2325 249° West 327 376 20,700 -1,200 Descending Denver Center
12:44PM 38.9025 -103.3383 250° West 317 365 19,600 -1,080 Descending Denver Center
12:45PM 38.8714 -103.4411 249° West 310 357 18,500 -900 Descending Denver Center
12:46PM 38.8408 -103.5478 250° West 312 359 17,800 -900 Descending Denver Center
12:47PM 38.8225 -103.6628 258° West 324 373 16,700 -960 Descending Denver Center
12:48PM 38.8381 -103.7717 280° West 315 362 15,900 -840 Descending Denver Center
12:49PM 38.8506 -103.8808 278° West 309 356 15,000 -900 Descending Denver Center
12:50PM 38.8669 -104.0058 280° West 305 351 14,100 -1,020 Descending Denver Center
12:51PM 38.8803 -104.1142 279° West 304 350 13,000 -1,020 Descending Denver Center
12:52PM 38.8914 -104.2261 277° West 308 354 12,000 -540 Descending Denver Center
12:53PM 38.8972 -104.3367 274° West 308 354 12,000 -540 Level Denver Center
12:54PM 38.9044 -104.4433 275° West 304 350 11,000 -540 Descending Denver Center
12:55PM 38.9156 -104.5356 279° West 270 311 10,900 -540 Descending Denver Center
12:56PM 38.9311 -104.6094 285° West 218 251 10,000 -1,020 Descending Denver Center
12:57PM 38.9131 -104.6689 249° West 186 214 8,900 -780 Descending Denver Center
12:58PM 38.8856 -104.7294 240° Southwest 183 211 8,400 -540 Descending Denver Center
01:00PM 38.8000 -104.7000 252° West  Level FlightAware Approximate
01:07PM 38.8058 -104.7008 252° West  Level Estimated
01:08PM 38.8000 -104.7000 252° West  Level FlightAware Approximate